This is the latest recevied weather packets stored in our database for station/object HB9MIR-13. If no packets are shown the sender has not sent any weather packets the latest 10 day(s).
| Time | Temp. | Humidity | Pressure | Rain* | Wind** | Luminosity | Snow |
|---|---|---|---|---|---|---|---|
| 1777907449 | 18.89° C | 54% | 1011.3 hPa | 0 mm | - | 136 W/m² | - |
| 1777906749 | 18.89° C | 51% | 1011.2 hPa | 0 mm | - | 114 W/m² | - |
| 1777906062 | 19.44° C | 50% | 1011.1 hPa | 0 mm | - | 156 W/m² | - |
| 1777905374 | 19.44° C | 50% | 1011.1 hPa | 0 mm | - | 163 W/m² | - |
| 1777904687 | 19.44° C | 49% | 1010.9 hPa | 0 mm | - | 143 W/m² | - |
| 1777903950 | 20° C | 48% | 1010.9 hPa | 0 mm | - | 234 W/m² | - |
| 1777903248 | 20° C | 48% | 1010.9 hPa | 0 mm | - | 253 W/m² | - |
| 1777902561 | 20° C | 47% | 1010.9 hPa | 0 mm | - | 224 W/m² | - |
| 1777901874 | 20.56° C | 49% | 1010.8 hPa | 0 mm | - | 265 W/m² | - |
| 1777901187 | 20.56° C | 47% | 1010.8 hPa | 0 mm | - | 347 W/m² | - |
| 1777900451 | 21.11° C | 45% | 1010.7 hPa | 0 mm | - | 286 W/m² | - |
| 1777899752 | 21.67° C | 42% | 1010.7 hPa | 0 mm | - | 286 W/m² | - |
| 1777899064 | 22.22° C | 40% | 1010.7 hPa | 0 mm | - | 331 W/m² | - |
| 1777898378 | 22.22° C | 37% | 1011.1 hPa | 0 mm | - | 504 W/m² | - |
| 1777897690 | 22.22° C | 39% | 1011.1 hPa | 0 mm | - | 452 W/m² | - |
| 1777897004 | 22.22° C | 36% | 1011.2 hPa | 0 mm | - | 380 W/m² | - |
| 1777896316 | 21.67° C | 42% | 1011 hPa | 0 mm | - | 400 W/m² | - |
| 1777895581 | 21.11° C | 43% | 1011.3 hPa | 0 mm | - | 500 W/m² | - |
| 1777894880 | 20.56° C | 43% | 1011.6 hPa | 0 mm | - | 489 W/m² | - |
| 1777894204 | 20.56° C | 42% | 1011.3 hPa | 0 mm | - | 318 W/m² | - |
| 1777893503 | 20° C | 43% | 1011.2 hPa | 0 mm | - | 236 W/m² | - |
| 1777892817 | 20.56° C | 43% | 1011.2 hPa | 0 mm | - | 313 W/m² | - |
| 1777892129 | 20.56° C | 44% | 1011.5 hPa | 0 mm | - | 323 W/m² | - |
| 1777891442 | 20.56° C | 45% | 1011.6 hPa | 0 mm | - | 349 W/m² | - |
| 1777890755 | 20° C | 45% | 1011.8 hPa | 0 mm | - | 329 W/m² | - |
* Rain latest hour (hover to see other rain measurements)
** Current wind speed in m/s (hover to see current wind gust speed)